createdAt,value
2024-01-19T00:00:37.890Z,6.08
2024-01-19T00:01:37.522Z,5.76
2024-01-19T00:02:38.281Z,6.08
2024-01-19T00:03:37.835Z,5.76
2024-01-19T00:04:38.755Z,6.32
2024-01-19T00:05:38.536Z,4.56
2024-01-19T00:06:38.064Z,4.80
2024-01-19T00:07:43.378Z,4.24
2024-01-19T00:08:37.993Z,6.60
2024-01-19T00:09:38.121Z,3.89
2024-01-19T00:10:38.035Z,4.56
2024-01-19T00:11:38.298Z,3.07
2024-01-19T00:12:47.179Z,4.00
2024-01-19T00:13:42.873Z,3.79
2024-01-19T00:14:38.771Z,4.08
2024-01-19T00:15:42.357Z,4.88
2024-01-19T00:16:38.071Z,4.92
2024-01-19T00:17:38.248Z,5.40
2024-01-19T00:21:40.068Z,4.80
2024-01-19T00:22:37.964Z,8.28
2024-01-19T00:23:38.096Z,9.60
2024-01-19T00:24:37.972Z,4.56
2024-01-19T00:25:37.598Z,3.60
2024-01-19T00:26:40.395Z,5.68
2024-01-19T00:27:38.114Z,3.24
2024-01-19T00:28:42.786Z,3.20
2024-01-19T00:29:38.418Z,5.84
2024-01-19T00:30:38.471Z,5.48
2024-01-19T00:31:38.191Z,5.16
2024-01-19T00:32:37.974Z,3.16
2024-01-19T00:33:36.557Z,2.60
2024-01-19T00:34:35.313Z,5.00
2024-01-19T00:35:37.438Z,5.56
2024-01-19T00:36:36.666Z,5.92
2024-01-19T00:37:38.011Z,4.20
2024-01-19T00:38:43.374Z,5.36
2024-01-19T00:39:38.688Z,6.48
2024-01-19T00:44:38.206Z,8.44
2024-01-19T00:45:38.798Z,7.32
2024-01-19T00:46:39.119Z,9.64
2024-01-19T00:47:37.961Z,8.12
2024-01-19T00:48:37.873Z,7.28
2024-01-19T00:49:35.621Z,6.32
2024-01-19T00:50:38.218Z,10.84
2024-01-19T00:51:38.574Z,8.44
2024-01-19T00:52:38.639Z,8.52
2024-01-19T00:53:33.198Z,8.60
2024-01-19T00:54:38.201Z,8.64
2024-01-19T00:55:36.076Z,6.44
2024-01-19T00:56:38.389Z,6.72
2024-01-19T00:57:36.797Z,9.72
2024-01-19T00:58:38.699Z,10.48
2024-01-19T00:59:38.948Z,8.76
2024-01-19T01:00:37.624Z,5.72
2024-01-19T01:01:39.131Z,7.08
2024-01-19T01:02:37.686Z,7.52
2024-01-19T01:03:38.163Z,4.52
2024-01-19T01:04:37.968Z,5.12
2024-01-19T01:05:37.306Z,5.32
2024-01-19T01:06:38.361Z,7.44
2024-01-19T01:07:38.461Z,8.12
2024-01-19T01:08:38.723Z,11.60
2024-01-19T01:09:38.809Z,9.96
2024-01-19T01:10:38.861Z,10.68
2024-01-19T01:11:38.943Z,10.52
2024-01-19T01:12:37.594Z,8.84
2024-01-19T01:13:38.574Z,8.80
2024-01-19T01:14:38.167Z,9.32
2024-01-19T01:15:37.785Z,9.08
2024-01-19T01:16:39.201Z,5.52
2024-01-19T01:17:37.502Z,5.92
2024-01-19T01:18:39.300Z,7.16
2024-01-19T01:19:38.431Z,8.44
2024-01-19T01:20:38.078Z,4.80
2024-01-19T01:21:37.589Z,4.08
2024-01-19T01:22:38.613Z,2.28
2024-01-19T01:23:38.222Z,4.44
2024-01-19T01:24:38.038Z,3.08
2024-01-19T01:25:37.781Z,3.96
2024-01-19T01:26:38.878Z,9.64
2024-01-19T01:27:37.448Z,6.04
2024-01-19T01:28:38.341Z,5.40
2024-01-19T01:29:38.395Z,7.48
2024-01-19T01:30:38.509Z,8.64
2024-01-19T01:31:38.575Z,6.44
2024-01-19T01:32:38.457Z,5.76
2024-01-19T01:33:38.878Z,4.64
2024-01-19T01:34:37.566Z,5.16
2024-01-19T01:35:38.572Z,7.88
2024-01-19T01:36:38.941Z,6.16
2024-01-19T01:37:37.210Z,7.88
2024-01-19T01:38:37.704Z,9.76
2024-01-19T01:39:39.126Z,9.52
2024-01-19T01:40:38.421Z,9.52
2024-01-19T01:41:38.276Z,12.12
2024-01-19T01:42:38.187Z,5.08
2024-01-19T01:43:37.945Z,8.80
2024-01-19T01:44:37.292Z,11.04
2024-01-19T01:45:38.834Z,8.28
2024-01-19T01:46:38.711Z,12.40
2024-01-19T01:47:38.728Z,6.96
2024-01-19T01:48:39.123Z,5.72
2024-01-19T01:49:38.326Z,7.76
2024-01-19T01:50:38.269Z,5.48
2024-01-19T01:51:37.775Z,15.12
2024-01-19T01:52:38.836Z,8.68
2024-01-19T01:53:39.228Z,7.08
2024-01-19T01:54:38.144Z,8.96
2024-01-19T01:55:37.480Z,5.08
2024-01-19T01:56:37.831Z,8.44
2024-01-19T01:57:38.324Z,9.24
2024-01-19T01:58:38.121Z,3.88
2024-01-19T01:59:38.408Z,7.28
2024-01-19T02:00:38.132Z,3.40
2024-01-19T02:01:37.483Z,8.36
2024-01-19T02:02:38.404Z,11.36
2024-01-19T02:03:38.872Z,9.52
2024-01-19T02:04:38.458Z,7.88
2024-01-19T02:05:38.324Z,8.96
2024-01-19T02:06:35.832Z,8.60
2024-01-19T02:07:36.727Z,13.96
2024-01-19T02:08:38.880Z,8.20
2024-01-19T02:09:34.427Z,6.24
2024-01-19T02:10:37.669Z,4.76
2024-01-19T02:11:37.404Z,4.16
2024-01-19T02:12:34.525Z,4.60
2024-01-19T02:13:29.977Z,4.16
2024-01-19T02:14:37.041Z,7.08
2024-01-19T02:15:36.439Z,8.32
2024-01-19T02:16:33.664Z,10.20
2024-01-19T02:17:38.626Z,5.60
2024-01-19T02:18:38.577Z,4.84
2024-01-19T02:19:38.241Z,10.16
2024-01-19T02:20:37.878Z,9.40
2024-01-19T02:21:37.872Z,6.44
2024-01-19T02:22:39.179Z,6.08
2024-01-19T02:23:35.342Z,5.88
2024-01-19T02:24:38.745Z,9.92
2024-01-19T02:25:38.623Z,7.64
2024-01-19T02:26:36.397Z,5.84
2024-01-19T02:27:34.917Z,9.00
2024-01-19T02:28:35.343Z,9.20
2024-01-19T02:29:33.612Z,10.08
2024-01-19T02:30:35.803Z,6.76
2024-01-19T02:31:35.984Z,6.32
2024-01-19T02:32:38.212Z,8.08
2024-01-19T02:33:37.969Z,8.88
2024-01-19T02:34:35.434Z,10.60
2024-01-19T02:35:35.453Z,10.24
2024-01-19T02:36:38.674Z,13.60
2024-01-19T02:37:38.301Z,11.76
2024-01-19T02:38:38.750Z,16.76
2024-01-19T02:39:36.364Z,8.60
2024-01-19T02:40:30.946Z,11.76
2024-01-19T02:41:35.389Z,20.00
2024-01-19T02:42:38.759Z,19.60
2024-01-19T02:43:38.946Z,7.36
2024-01-19T02:44:43.266Z,11.64
2024-01-19T02:45:32.696Z,16.32
2024-01-19T02:46:35.217Z,14.08
2024-01-19T02:47:35.835Z,10.32
2024-01-19T02:48:34.685Z,11.60
2024-01-19T02:49:38.852Z,13.04
2024-01-19T02:50:38.149Z,14.52
2024-01-19T02:51:37.540Z,10.12
2024-01-19T02:52:32.321Z,6.40
2024-01-19T02:53:35.511Z,9.88
2024-01-19T02:54:32.164Z,11.28
2024-01-19T02:55:34.474Z,15.08
2024-01-19T02:56:33.605Z,10.00
2024-01-19T02:57:33.639Z,12.40
2024-01-19T02:58:35.177Z,9.32
2024-01-19T02:59:36.213Z,18.20
2024-01-19T03:00:37.655Z,8.96
2024-01-19T03:01:36.136Z,10.40
2024-01-19T03:02:37.704Z,15.84
2024-01-19T03:03:38.573Z,19.92
2024-01-19T03:04:30.973Z,15.40
2024-01-19T03:05:28.655Z,15.20
2024-01-19T03:06:38.653Z,9.08
2024-01-19T03:07:32.910Z,10.84
2024-01-19T03:08:28.465Z,16.64
2024-01-19T03:09:34.408Z,17.32
2024-01-19T03:10:27.812Z,19.56
2024-01-19T03:11:35.162Z,18.00
2024-01-19T03:12:32.259Z,14.52
2024-01-19T03:13:34.770Z,15.60
2024-01-19T03:14:36.220Z,12.04
2024-01-19T03:15:34.934Z,8.20
2024-01-19T03:16:33.725Z,9.76
2024-01-19T03:17:30.661Z,12.28
2024-01-19T03:18:31.291Z,12.36
2024-01-19T03:19:37.313Z,19.60
2024-01-19T03:20:36.255Z,13.56
2024-01-19T03:21:37.815Z,11.00
2024-01-19T03:22:34.794Z,10.64
2024-01-19T03:23:32.638Z,15.36
2024-01-19T03:24:28.185Z,17.60
2024-01-19T03:25:27.034Z,23.88
2024-01-19T03:26:27.041Z,14.56
2024-01-19T03:27:26.830Z,19.96
2024-01-19T03:28:27.627Z,15.84
2024-01-19T03:29:28.766Z,13.96
2024-01-19T03:30:27.971Z,10.84
2024-01-19T03:31:27.053Z,14.36
2024-01-19T03:32:28.990Z,18.30
2024-01-19T03:33:26.836Z,14.82
2024-01-19T03:34:26.790Z,16.48
2024-01-19T03:35:32.514Z,13.20
2024-01-19T03:36:37.750Z,12.52
2024-01-19T03:37:38.847Z,13.60
2024-01-19T03:38:35.914Z,11.80
2024-01-19T03:39:32.263Z,10.92
2024-01-19T03:40:35.517Z,10.84
2024-01-19T03:41:36.324Z,15.00
2024-01-19T03:42:37.493Z,15.17
2024-01-19T03:43:38.376Z,14.60
2024-01-19T03:44:36.291Z,14.00
2024-01-19T03:45:37.882Z,19.60
2024-01-19T03:46:36.926Z,13.44
2024-01-19T03:47:38.328Z,14.08
2024-01-19T03:48:35.612Z,14.20
2024-01-19T03:49:36.069Z,13.20
2024-01-19T03:50:35.149Z,12.88
2024-01-19T03:51:35.157Z,13.40
2024-01-19T03:52:35.277Z,18.96
2024-01-19T03:53:36.572Z,12.12
2024-01-19T03:54:38.563Z,18.72
2024-01-19T03:55:37.507Z,18.88
2024-01-19T03:56:35.939Z,12.20
2024-01-19T03:57:37.883Z,16.36
2024-01-19T03:58:38.329Z,9.32
2024-01-19T03:59:37.327Z,7.72
2024-01-19T04:00:37.747Z,10.64
2024-01-19T04:01:34.964Z,7.76
2024-01-19T04:02:37.019Z,9.96
2024-01-19T04:03:37.861Z,12.92
2024-01-19T04:04:37.561Z,13.08
2024-01-19T04:05:35.786Z,9.84
2024-01-19T04:06:33.010Z,11.00
2024-01-19T04:07:32.383Z,8.96
2024-01-19T04:08:36.925Z,10.88
2024-01-19T04:09:37.691Z,11.76
2024-01-19T04:10:31.001Z,15.80
2024-01-19T04:11:28.743Z,10.88
2024-01-19T04:12:27.536Z,14.20
2024-01-19T04:13:27.616Z,12.92
2024-01-19T04:14:27.540Z,7.68
2024-01-19T04:15:27.734Z,13.40
2024-01-19T04:16:28.698Z,17.60
2024-01-19T04:17:33.231Z,18.88
2024-01-19T04:18:35.415Z,18.36
2024-01-19T04:19:33.070Z,10.48
2024-01-19T04:20:34.571Z,19.56
2024-01-19T04:21:33.871Z,15.48
2024-01-19T04:22:34.425Z,20.48
2024-01-19T04:23:34.061Z,13.48
2024-01-19T04:24:33.952Z,11.40
2024-01-19T04:25:30.058Z,13.44
2024-01-19T04:26:30.287Z,22.48
2024-01-19T04:27:34.493Z,21.12
2024-01-19T04:28:34.382Z,16.48
2024-01-19T04:29:33.720Z,15.92
2024-01-19T04:30:38.643Z,13.12
2024-01-19T04:32:38.976Z,7.44
2024-01-19T04:33:37.942Z,14.96
2024-01-19T04:34:37.556Z,14.28
2024-01-19T04:35:38.305Z,17.00
2024-01-19T04:36:37.571Z,14.00
2024-01-19T04:37:38.385Z,12.72
2024-01-19T04:38:38.540Z,8.24
2024-01-19T04:39:38.276Z,12.64
2024-01-19T04:40:38.128Z,6.40
2024-01-19T04:41:38.767Z,12.04
2024-01-19T04:42:39.286Z,29.88
2024-01-19T04:43:38.228Z,16.72
2024-01-19T04:44:37.747Z,25.56
2024-01-19T04:45:38.713Z,23.56
2024-01-19T04:46:41.966Z,17.88
2024-01-19T04:47:37.855Z,19.20
2024-01-19T04:48:38.160Z,17.32
2024-01-19T04:49:43.110Z,16.04
2024-01-19T04:51:37.605Z,26.30
2024-01-19T04:52:37.466Z,29.44
2024-01-19T04:53:35.631Z,17.24
2024-01-19T04:54:37.815Z,17.12
2024-01-19T04:55:34.072Z,18.20
2024-01-19T04:56:38.151Z,25.44
2024-01-19T04:57:37.674Z,22.84
2024-01-19T04:58:36.999Z,26.96
2024-01-19T04:59:37.990Z,25.88
2024-01-19T05:00:37.496Z,18.64
2024-01-19T05:01:57.470Z,18.18
2024-01-19T05:03:37.442Z,20.44
2024-01-19T05:04:38.422Z,23.44
2024-01-19T05:05:38.558Z,18.20
2024-01-19T05:06:38.513Z,16.36
2024-01-19T05:07:36.446Z,13.80
2024-01-19T05:08:34.934Z,23.68
2024-01-19T05:09:27.956Z,25.76
2024-01-19T05:10:31.982Z,35.80
2024-01-19T05:11:29.120Z,30.80
2024-01-19T05:12:34.281Z,20.88
2024-01-19T05:13:35.208Z,21.08
2024-01-19T05:14:32.774Z,23.28
2024-01-19T05:15:35.651Z,22.04
2024-01-19T05:16:28.802Z,22.92
2024-01-19T05:17:31.853Z,18.76
2024-01-19T05:18:31.338Z,22.64
2024-01-19T05:19:42.138Z,21.60
2024-01-19T05:20:27.968Z,16.14
2024-01-19T05:21:28.528Z,21.52
2024-01-19T05:24:29.018Z,21.66
2024-01-19T05:25:27.654Z,13.28
2024-01-19T05:26:29.011Z,11.76
2024-01-19T05:27:29.187Z,13.56
2024-01-19T05:28:35.628Z,21.12
2024-01-19T05:29:29.375Z,22.13
2024-01-19T05:30:34.933Z,22.80
2024-01-19T05:31:38.534Z,31.76
2024-01-19T05:32:40.716Z,37.36
2024-01-19T05:34:35.686Z,29.16
2024-01-19T05:35:34.741Z,22.96
2024-01-19T05:36:34.368Z,22.36
2024-01-19T05:37:34.875Z,23.52
2024-01-19T05:38:36.191Z,15.39
2024-01-19T05:39:34.497Z,24.64
2024-01-19T05:40:30.913Z,22.20
2024-01-19T05:41:34.506Z,25.80
2024-01-19T05:42:34.716Z,16.80
2024-01-19T05:43:35.726Z,16.08
2024-01-19T05:44:32.489Z,15.04
2024-01-19T05:46:42.550Z,20.56
2024-01-19T05:47:35.027Z,20.36
2024-01-19T05:48:33.889Z,29.20
2024-01-19T05:49:35.324Z,36.92
2024-01-19T05:50:34.796Z,30.72
2024-01-19T05:51:32.518Z,14.80
2024-01-19T05:52:29.473Z,32.64
2024-01-19T05:53:28.184Z,14.56
2024-01-19T05:54:32.378Z,15.84
2024-01-19T05:57:27.889Z,27.96
2024-01-19T05:58:26.811Z,28.80
2024-01-19T05:59:28.216Z,21.40
2024-01-19T06:00:27.007Z,18.16
2024-01-19T06:01:55.924Z,27.48
2024-01-19T06:02:26.862Z,22.90
2024-01-19T06:03:27.987Z,24.96
2024-01-19T06:04:26.893Z,16.20
2024-01-19T06:05:26.762Z,12.56
2024-01-19T06:06:27.725Z,25.80
2024-01-19T06:07:27.962Z,14.72
2024-01-19T06:08:26.871Z,27.44
2024-01-19T06:09:26.651Z,24.40
2024-01-19T06:10:28.011Z,12.72
2024-01-19T06:11:26.889Z,16.36
2024-01-19T06:12:26.711Z,13.32
2024-01-19T06:13:27.519Z,12.84
2024-01-19T06:14:27.716Z,12.96
2024-01-19T06:15:28.070Z,8.96
2024-01-19T06:16:32.242Z,10.16
2024-01-19T06:17:27.454Z,15.60
2024-01-19T06:18:28.028Z,11.76
2024-01-19T06:19:27.338Z,11.88
2024-01-19T06:20:27.256Z,10.84
2024-01-19T06:21:27.018Z,11.96
2024-01-19T06:22:26.942Z,15.19
2024-01-19T06:23:26.763Z,10.42
2024-01-19T06:24:27.549Z,13.12
2024-01-19T06:25:27.469Z,8.56
2024-01-19T06:26:27.434Z,11.72
2024-01-19T06:27:27.416Z,11.28
2024-01-19T06:28:26.966Z,16.68
2024-01-19T06:29:26.790Z,13.00
2024-01-19T06:30:27.877Z,11.32
2024-01-19T06:31:27.737Z,16.36
2024-01-19T06:32:34.097Z,10.72
2024-01-19T06:33:27.024Z,8.64
2024-01-19T06:34:27.239Z,4.80
2024-01-19T06:35:27.437Z,9.04
2024-01-19T06:36:28.571Z,12.40
2024-01-19T06:37:27.592Z,13.80
2024-01-19T06:38:27.523Z,14.76
2024-01-19T06:39:27.433Z,18.36
2024-01-19T06:40:27.645Z,17.88
2024-01-19T06:41:27.493Z,12.36
2024-01-19T06:42:33.004Z,15.41
2024-01-19T06:44:27.197Z,17.71
2024-01-19T06:45:27.384Z,12.80
2024-01-19T06:46:27.671Z,14.00
2024-01-19T06:47:27.492Z,11.52
2024-01-19T06:48:27.499Z,13.68
2024-01-19T06:49:27.453Z,11.32
2024-01-19T06:50:27.507Z,15.24
2024-01-19T06:51:32.373Z,14.68
2024-01-19T06:52:27.626Z,16.96
2024-01-19T06:53:27.827Z,15.40
2024-01-19T06:54:28.206Z,16.72
2024-01-19T06:55:27.338Z,7.92
2024-01-19T06:56:27.554Z,17.76
2024-01-19T06:57:27.901Z,14.00
2024-01-19T06:58:27.487Z,8.24
2024-01-19T06:59:27.722Z,16.80
2024-01-19T07:00:32.942Z,25.92
2024-01-19T07:01:26.738Z,17.52
2024-01-19T07:02:28.065Z,13.92
2024-01-19T07:03:26.939Z,13.48
2024-01-19T07:04:32.332Z,5.34
2024-01-19T07:06:32.771Z,11.76
2024-01-19T07:07:27.409Z,13.28
2024-01-19T07:08:27.178Z,8.88
2024-01-19T07:10:27.113Z,10.27
2024-01-19T07:11:27.312Z,15.32
2024-01-19T07:12:27.649Z,7.04
2024-01-19T07:13:51.346Z,11.40
2024-01-19T07:14:27.359Z,11.28
2024-01-19T07:15:27.684Z,10.62
2024-01-19T07:16:27.459Z,8.24
2024-01-19T07:17:28.310Z,11.64
2024-01-19T07:18:27.833Z,11.20
2024-01-19T07:19:27.545Z,9.60
2024-01-19T07:20:27.910Z,10.44
2024-01-19T07:21:27.217Z,7.60
2024-01-19T07:22:27.547Z,16.36
2024-01-19T07:23:30.944Z,12.40
2024-01-19T07:24:27.814Z,12.80
2024-01-19T07:25:29.395Z,9.68
2024-01-19T07:26:27.221Z,10.28
2024-01-19T07:27:26.915Z,6.08
2024-01-19T07:28:26.635Z,8.60
2024-01-19T07:29:28.744Z,6.04
2024-01-19T07:30:28.077Z,6.08
2024-01-19T07:31:27.406Z,7.32
2024-01-19T07:32:28.105Z,8.16
2024-01-19T07:33:32.476Z,8.12
2024-01-19T07:34:27.650Z,6.40
2024-01-19T07:35:27.642Z,5.12
2024-01-19T07:36:27.864Z,6.64
2024-01-19T07:37:27.536Z,3.24
2024-01-19T07:38:27.611Z,3.24
2024-01-19T07:39:44.349Z,9.60
2024-01-19T07:40:27.240Z,6.79
2024-01-19T07:41:28.812Z,7.80
2024-01-19T07:42:34.785Z,4.16
2024-01-19T07:43:26.796Z,8.40
2024-01-19T07:44:27.471Z,5.04
2024-01-19T07:45:27.208Z,6.08
2024-01-19T07:46:27.100Z,5.52
2024-01-19T07:47:27.349Z,9.04
2024-01-19T07:48:28.126Z,4.80
2024-01-19T07:49:27.775Z,3.30
2024-01-19T07:50:28.519Z,4.96
2024-01-19T07:51:27.102Z,2.64
2024-01-19T07:52:27.098Z,6.80
2024-01-19T07:53:27.438Z,11.52
2024-01-19T07:54:27.045Z,7.64
2024-01-19T07:55:26.996Z,7.76
2024-01-19T07:56:27.958Z,12.28
2024-01-19T07:57:26.806Z,6.60
2024-01-19T07:58:27.483Z,4.76
2024-01-19T07:59:27.413Z,7.84
2024-01-19T08:00:27.758Z,5.08
2024-01-19T08:01:27.672Z,4.72
2024-01-19T08:02:33.234Z,6.80
2024-01-19T08:03:35.776Z,17.36
2024-01-19T08:04:40.793Z,10.24
2024-01-19T08:05:38.328Z,8.04
2024-01-19T08:06:38.293Z,9.84
2024-01-19T08:07:28.449Z,8.08
2024-01-19T08:08:43.574Z,20.94
2024-01-19T08:09:27.619Z,10.08
2024-01-19T08:11:27.886Z,15.72
2024-01-19T08:12:27.167Z,9.92
2024-01-19T08:13:27.462Z,13.44
2024-01-19T08:14:27.826Z,7.60
2024-01-19T08:15:28.906Z,21.44
2024-01-19T08:16:27.239Z,15.72
2024-01-19T08:17:27.404Z,10.92
2024-01-19T08:18:27.425Z,14.08
2024-01-19T08:19:27.352Z,21.64
2024-01-19T08:20:27.342Z,8.20
2024-01-19T08:21:27.223Z,9.72
2024-01-19T08:22:26.794Z,9.52
2024-01-19T08:23:28.027Z,10.56
2024-01-19T08:24:27.129Z,9.28
2024-01-19T08:25:27.208Z,17.48
2024-01-19T08:26:27.189Z,10.48
2024-01-19T08:27:26.975Z,10.60
2024-01-19T08:28:26.733Z,5.04
2024-01-19T08:29:27.947Z,4.88
2024-01-19T08:30:26.822Z,12.60
2024-01-19T08:31:27.776Z,14.28
2024-01-19T08:33:27.287Z,17.28
2024-01-19T08:34:26.913Z,10.44
2024-01-19T08:35:27.459Z,20.64
2024-01-19T08:36:27.448Z,13.24
2024-01-19T08:37:28.191Z,8.16
2024-01-19T08:38:27.516Z,15.08
2024-01-19T08:39:27.231Z,13.68
2024-01-19T08:40:27.179Z,9.52
2024-01-19T08:41:27.473Z,8.40
2024-01-19T08:42:27.887Z,10.36
2024-01-19T08:43:32.004Z,9.20
2024-01-19T08:44:27.025Z,10.56
2024-01-19T08:45:37.035Z,7.08
2024-01-19T08:46:26.941Z,16.44
2024-01-19T08:47:26.822Z,18.60
2024-01-19T08:48:26.810Z,15.44
2024-01-19T08:49:26.963Z,5.28
2024-01-19T08:50:37.089Z,8.93
2024-01-19T08:52:27.698Z,11.28
2024-01-19T08:53:28.126Z,11.76
2024-01-19T08:54:55.273Z,21.60
2024-01-19T08:55:27.646Z,19.56
2024-01-19T08:56:28.114Z,7.92
2024-01-19T08:57:27.309Z,22.72
2024-01-19T08:58:27.241Z,18.12
2024-01-19T08:59:27.158Z,7.92
2024-01-19T09:00:26.819Z,9.60
2024-01-19T09:01:27.574Z,19.56
2024-01-19T09:02:27.390Z,15.76
2024-01-19T09:03:27.322Z,12.08
2024-01-19T09:04:27.431Z,13.76
2024-01-19T09:05:28.544Z,7.92
2024-01-19T09:06:28.352Z,6.76
2024-01-19T09:07:27.441Z,7.00
2024-01-19T09:08:27.712Z,11.36
2024-01-19T09:09:27.669Z,14.92
2024-01-19T09:10:27.653Z,12.68
2024-01-19T09:11:27.627Z,9.16
2024-01-19T09:12:27.626Z,4.12
2024-01-19T09:13:27.202Z,13.44
2024-01-19T09:14:27.104Z,25.92
2024-01-19T09:15:26.731Z,21.36
2024-01-19T09:16:27.571Z,18.08
2024-01-19T09:17:27.589Z,20.04
2024-01-19T09:18:27.818Z,37.28
2024-01-19T09:19:27.738Z,26.24
2024-01-19T09:20:27.714Z,20.08
2024-01-19T09:21:27.840Z,25.92
2024-01-19T09:22:27.529Z,21.64
2024-01-19T09:23:27.587Z,30.44
2024-01-19T09:24:27.782Z,15.72
2024-01-19T09:25:28.137Z,19.12
2024-01-19T09:26:27.205Z,19.16
2024-01-19T09:27:27.476Z,19.36
2024-01-19T09:28:27.667Z,24.84
2024-01-19T09:29:27.485Z,17.32
2024-01-19T09:30:27.558Z,14.68
2024-01-19T09:31:27.548Z,13.84
2024-01-19T09:32:27.420Z,7.92
2024-01-19T09:33:28.121Z,7.04
2024-01-19T09:34:27.177Z,16.60
2024-01-19T09:35:26.972Z,19.72
2024-01-19T09:36:27.227Z,20.88
2024-01-19T09:37:27.408Z,15.32
2024-01-19T09:38:27.311Z,13.96
2024-01-19T09:39:27.296Z,30.76
2024-01-19T09:40:27.630Z,24.56
2024-01-19T09:41:27.511Z,24.32
2024-01-19T09:42:27.938Z,11.40
2024-01-19T09:43:26.965Z,22.00
2024-01-19T09:44:27.184Z,18.20
2024-01-19T09:45:27.524Z,14.40
2024-01-19T09:46:28.684Z,22.64
2024-01-19T09:47:27.792Z,14.28
2024-01-19T09:48:28.046Z,13.64
2024-01-19T09:49:27.553Z,16.20
2024-01-19T09:50:28.070Z,20.96
2024-01-19T09:51:27.214Z,22.00
2024-01-19T09:52:27.446Z,23.72
2024-01-19T09:54:27.964Z,13.20
2024-01-19T09:55:26.973Z,17.12
2024-01-19T09:56:26.574Z,19.16
2024-01-19T09:57:32.491Z,18.24
2024-01-19T09:58:27.224Z,9.68
2024-01-19T09:59:37.385Z,4.68
2024-01-19T10:00:42.483Z,6.72
2024-01-19T10:01:27.560Z,11.82
2024-01-19T10:02:40.811Z,14.16
2024-01-19T10:05:29.286Z,24.24
2024-01-19T10:06:28.038Z,21.84
2024-01-19T10:07:27.560Z,29.88
2024-01-19T10:08:27.425Z,24.12
2024-01-19T10:09:27.303Z,11.24
2024-01-19T10:11:27.463Z,18.24
2024-01-19T10:12:32.512Z,20.28
2024-01-19T10:13:34.055Z,35.40
2024-01-19T10:14:32.214Z,26.76
2024-01-19T10:15:27.398Z,33.56
2024-01-19T10:16:36.041Z,12.96
2024-01-19T10:18:53.209Z,25.60
2024-01-19T10:20:27.389Z,30.48
2024-01-19T10:21:27.810Z,26.16
2024-01-19T10:22:28.520Z,36.48
2024-01-19T10:24:40.648Z,17.18
2024-01-19T10:25:27.724Z,28.96
2024-01-19T10:26:27.892Z,23.34
2024-01-19T10:27:37.009Z,13.52
2024-01-19T10:28:27.405Z,33.36
2024-01-19T10:29:27.518Z,18.48
2024-01-19T10:30:29.999Z,15.36
2024-01-19T10:31:27.616Z,20.78
2024-01-19T10:32:27.681Z,15.76
2024-01-19T10:33:27.542Z,14.64
2024-01-19T10:34:27.829Z,9.28
2024-01-19T10:38:09.525Z,19.32
2024-01-19T10:38:27.776Z,14.16
2024-01-19T10:39:33.292Z,20.80
2024-01-19T10:40:27.270Z,20.23
2024-01-19T10:41:27.487Z,15.20
2024-01-19T10:42:27.512Z,7.32
2024-01-19T10:43:27.590Z,15.72
2024-01-19T10:44:27.236Z,19.08
2024-01-19T10:45:27.152Z,16.40
2024-01-19T10:46:27.289Z,30.92
2024-01-19T10:47:27.253Z,13.96
2024-01-19T10:48:27.228Z,10.84
2024-01-19T10:49:27.671Z,16.52
2024-01-19T10:50:28.209Z,22.76
2024-01-19T10:51:27.456Z,19.80
2024-01-19T10:52:27.150Z,21.24
2024-01-19T10:53:26.797Z,16.32
2024-01-19T10:54:27.972Z,7.28
2024-01-19T10:55:26.938Z,12.43
2024-01-19T10:56:26.749Z,15.76
2024-01-19T10:57:27.983Z,13.40
2024-01-19T10:58:27.361Z,13.64
2024-01-19T10:59:27.533Z,20.48
2024-01-19T11:00:27.608Z,15.88
2024-01-19T11:01:27.647Z,12.28
2024-01-19T11:02:28.041Z,13.92
2024-01-19T11:03:26.997Z,11.08
2024-01-19T11:04:27.205Z,7.48
2024-01-19T11:05:27.044Z,13.84
2024-01-19T11:06:27.339Z,14.20
2024-01-19T11:07:27.464Z,20.96
2024-01-19T11:08:32.800Z,15.12
2024-01-19T11:09:27.757Z,18.67
2024-01-19T11:10:27.628Z,32.76
2024-01-19T11:11:32.603Z,30.52
2024-01-19T11:12:27.653Z,27.44
2024-01-19T11:13:27.314Z,14.76
2024-01-19T11:14:27.818Z,19.56
2024-01-19T11:15:27.328Z,28.40
2024-01-19T11:16:27.952Z,39.24
2024-01-19T11:17:26.964Z,21.48
2024-01-19T11:18:26.932Z,25.04
2024-01-19T11:19:27.357Z,24.92
2024-01-19T11:22:28.102Z,23.84
2024-01-19T11:23:27.724Z,22.44
2024-01-19T11:24:28.363Z,32.24
2024-01-19T11:25:27.241Z,26.40
2024-01-19T11:26:26.865Z,15.44
2024-01-19T11:27:28.386Z,20.64
2024-01-19T11:28:28.832Z,26.40
2024-01-19T11:29:27.726Z,15.40
2024-01-19T11:30:27.790Z,16.84
2024-01-19T11:31:27.566Z,17.40
2024-01-19T11:32:27.358Z,16.60
2024-01-19T11:33:27.148Z,20.28
2024-01-19T11:34:27.484Z,22.12
2024-01-19T11:35:27.876Z,18.12
2024-01-19T11:36:27.881Z,11.72
2024-01-19T11:37:28.279Z,12.52
2024-01-19T11:38:27.210Z,15.80
2024-01-19T11:39:26.873Z,21.72
2024-01-19T11:40:28.278Z,14.84
2024-01-19T11:41:27.074Z,14.36
2024-01-19T11:42:27.470Z,18.24
2024-01-19T11:43:27.611Z,36.04
2024-01-19T11:44:27.618Z,29.00
2024-01-19T11:45:27.548Z,24.72
2024-01-19T11:46:27.501Z,18.00
2024-01-19T11:47:27.610Z,32.08
2024-01-19T11:48:28.709Z,31.96
2024-01-19T11:49:28.493Z,20.72
2024-01-19T11:50:27.694Z,24.16
2024-01-19T11:51:28.346Z,31.24
2024-01-19T11:52:27.524Z,23.08
2024-01-19T11:53:27.482Z,24.36
2024-01-19T11:54:32.773Z,19.12
2024-01-19T11:55:27.909Z,25.32
2024-01-19T11:56:26.758Z,19.08
2024-01-19T11:57:27.516Z,31.04
2024-01-19T11:58:37.439Z,24.00
2024-01-19T12:00:32.551Z,20.72
2024-01-19T12:01:29.385Z,24.00
2024-01-19T12:02:27.734Z,10.24
2024-01-19T12:03:28.147Z,12.28
2024-01-19T12:04:42.206Z,12.54
2024-01-19T12:07:27.103Z,10.20
2024-01-19T12:08:27.409Z,5.12
2024-01-19T12:09:27.374Z,4.16
2024-01-19T12:10:27.272Z,4.08
2024-01-19T12:11:27.876Z,8.40
2024-01-19T12:12:38.742Z,3.96
2024-01-19T12:13:27.779Z,14.64
2024-01-19T12:14:43.688Z,16.61
2024-01-19T12:15:27.935Z,6.96
2024-01-19T12:16:26.701Z,7.68
2024-01-19T12:17:27.852Z,15.50
2024-01-19T12:18:33.495Z,10.61
2024-01-19T12:19:57.748Z,8.40
2024-01-19T12:20:27.660Z,14.16
2024-01-19T12:21:30.009Z,24.78
2024-01-19T12:22:37.106Z,27.24
2024-01-19T12:23:27.059Z,32.40
2024-01-19T12:25:32.557Z,21.12
2024-01-19T12:26:27.386Z,24.34
2024-01-19T12:27:27.246Z,25.60
2024-01-19T12:28:27.263Z,15.40
2024-01-19T12:29:27.385Z,19.92
2024-01-19T12:32:27.051Z,24.62
2024-01-19T12:33:27.688Z,15.84
2024-01-19T12:34:29.415Z,16.76
2024-01-19T12:35:27.428Z,9.56
2024-01-19T12:36:27.528Z,9.84
2024-01-19T12:37:28.140Z,12.56
2024-01-19T12:38:27.639Z,12.92
2024-01-19T12:39:27.652Z,21.20
2024-01-19T12:40:27.797Z,19.40
2024-01-19T12:41:28.112Z,18.08
2024-01-19T12:42:27.394Z,19.28
2024-01-19T12:43:27.525Z,26.20
2024-01-19T12:44:27.763Z,30.28
2024-01-19T12:45:27.646Z,17.68
2024-01-19T12:46:28.191Z,15.20
2024-01-19T12:47:27.151Z,23.00
2024-01-19T12:48:32.065Z,32.12
2024-01-19T12:49:27.321Z,26.16
2024-01-19T12:50:27.886Z,32.52
2024-01-19T12:51:26.927Z,29.20
2024-01-19T12:52:26.811Z,25.56
2024-01-19T12:53:27.676Z,41.44
2024-01-19T12:54:27.508Z,15.88
2024-01-19T12:55:27.181Z,12.68
2024-01-19T12:56:27.329Z,13.80
2024-01-19T12:57:27.370Z,24.00
2024-01-19T12:58:27.617Z,26.72
2024-01-19T12:59:27.593Z,27.12
2024-01-19T13:00:27.301Z,16.48
2024-01-19T13:01:27.132Z,13.48
2024-01-19T13:02:27.489Z,6.80
2024-01-19T13:03:27.762Z,14.64
2024-01-19T13:05:27.626Z,31.80
2024-01-19T13:06:27.560Z,24.44
2024-01-19T13:07:27.376Z,27.36
2024-01-19T13:08:28.813Z,9.60
2024-01-19T13:09:26.970Z,14.96
2024-01-19T13:10:26.692Z,12.40
2024-01-19T13:11:27.830Z,16.84
2024-01-19T13:12:27.392Z,20.80
2024-01-19T13:13:27.436Z,23.36
2024-01-19T13:14:27.872Z,19.08
2024-01-19T13:15:26.797Z,22.72
2024-01-19T13:16:28.552Z,25.08
2024-01-19T13:17:28.172Z,23.56
2024-01-19T13:18:26.996Z,20.96
2024-01-19T13:19:27.617Z,32.76
2024-01-19T13:20:28.390Z,24.28
2024-01-19T13:21:27.421Z,28.60
2024-01-19T13:22:27.263Z,24.44
2024-01-19T13:23:27.694Z,20.84
2024-01-19T13:24:27.974Z,13.88
2024-01-19T13:25:26.905Z,16.60
2024-01-19T13:26:27.116Z,16.88
2024-01-19T13:27:27.309Z,24.40
2024-01-19T13:28:27.561Z,17.56
2024-01-19T13:29:27.505Z,18.04
2024-01-19T13:30:32.816Z,19.60
2024-01-19T13:32:27.429Z,25.52
2024-01-19T13:33:27.504Z,20.72
2024-01-19T13:34:32.658Z,13.48
2024-01-19T13:35:27.760Z,17.12
2024-01-19T13:36:27.865Z,16.88
2024-01-19T13:37:38.642Z,9.36
2024-01-19T13:38:28.109Z,22.12
2024-01-19T13:39:27.173Z,30.56
2024-01-19T13:40:32.947Z,22.56
2024-01-19T13:41:26.752Z,28.32